Time;durP1;ratioP1;P1;durP2;ratioP2;P2;SDS_P1;SDS_P2;PMS_P1;PMS_P2;Temp;Humidity;BMP_temperature;BMP_pressure;BME280_temperature;BME280_humidity;BME280_pressure;Samples;Min_cycle;Max_cycle;Signal;HPM_P1;HPM_P2
2023/12/07 00:45:57;;;;;;;10.73;9.57;;;6.60;53.60;;;;;;21483;6514;67715;-66
2023/12/07 00:48:22;;;;;;;9.10;8.33;;;6.30;54.10;;;;;;20918;6788;117247;-66
2023/12/07 00:50:48;;;;;;;9.40;8.50;;;5.90;54.90;;;;;;20923;6778;116981;-66
2023/12/07 00:53:13;;;;;;;9.13;8.33;;;5.60;55.70;;;;;;20823;6833;117715;-67
2023/12/07 00:55:40;;;;;;;9.30;8.32;;;5.30;56.30;;;;;;20796;6826;118500;-66
2023/12/07 00:58:05;;;;;;;11.68;10.68;;;5.10;56.90;;;;;;20573;6836;338810;-66
2023/12/07 01:00:30;;;;;;;11.98;11.07;;;5.10;57.10;;;;;;20585;6836;337162;-66
2023/12/07 01:02:56;;;;;;;9.40;8.60;;;5.40;56.70;;;;;;20665;6836;117755;-66
2023/12/07 01:05:21;;;;;;;11.20;9.00;;;5.40;56.50;;;;;;20747;6836;119106;-66
2023/12/07 01:07:47;;;;;;;11.77;10.82;;;5.20;56.90;;;;;;20549;6836;337366;-66
2023/12/07 01:10:13;;;;;;;10.20;9.20;;;5.30;57.10;;;;;;20761;6836;118211;-66
2023/12/07 01:12:38;;;;;;;10.07;9.17;;;5.20;56.90;;;;;;20794;6836;117323;-66
2023/12/07 01:15:04;;;;;;;8.63;7.73;;;5.10;57.40;;;;;;20796;6836;119255;-66
2023/12/07 01:17:30;;;;;;;8.40;7.70;;;4.90;57.80;;;;;;20733;6851;117176;-65
2023/12/07 01:19:55;;;;;;;8.13;7.33;;;4.70;58.10;;;;;;20790;6836;117994;-66
2023/12/07 01:22:21;;;;;;;7.72;7.12;;;4.60;58.60;;;;;;20797;6836;117282;-66
2023/12/07 01:24:48;;;;;;;11.17;10.10;;;4.70;59.20;;;;;;20595;6836;308800;-66
2023/12/07 01:27:14;;;;;;;8.63;7.83;;;4.70;58.50;;;;;;20791;6836;118621;-66
2023/12/07 01:29:39;;;;;;;8.83;8.13;;;4.70;58.50;;;;;;20774;6836;118013;-66
2023/12/07 01:32:05;;;;;;;10.43;9.63;;;4.60;58.60;;;;;;20584;6836;293816;-66
2023/12/07 01:34:31;;;;;;;9.50;8.60;;;4.70;58.40;;;;;;20785;6836;117454;-66
2023/12/07 01:36:56;;;;;;;8.38;7.57;;;4.70;58.10;;;;;;20800;6836;117595;-66
2023/12/07 01:39:22;;;;;;;8.13;7.40;;;4.60;58.30;;;;;;20780;6836;127135;-66
2023/12/07 01:41:48;;;;;;;7.57;6.97;;;4.20;58.80;;;;;;20806;6836;117550;-65
2023/12/07 01:44:15;;;;;;;11.47;10.53;;;4.40;59.20;;;;;;20580;6836;308970;-66
2023/12/07 01:46:40;;;;;;;8.60;7.87;;;4.30;59.10;;;;;;20793;6836;118076;-66
2023/12/07 01:49:06;;;;;;;10.50;9.70;;;4.40;58.90;;;;;;20559;6836;308995;-66
2023/12/07 01:51:31;;;;;;;9.63;8.73;;;4.50;58.70;;;;;;20775;6836;117740;-65
2023/12/07 01:53:57;;;;;;;8.33;7.53;;;4.50;58.40;;;;;;20802;6836;118336;-65
2023/12/07 01:56:23;;;;;;;10.25;9.43;;;4.30;58.70;;;;;;20541;6849;339013;-66
2023/12/07 01:58:48;;;;;;;11.52;10.60;;;4.40;58.30;;;;;;20572;6835;308016;-66
2023/12/07 02:01:14;;;;;;;9.40;8.57;;;4.60;57.10;;;;;;20796;6835;117565;-66
2023/12/07 02:03:40;;;;;;;11.97;10.97;;;4.60;57.10;;;;;;20526;6849;309009;-66
2023/12/07 02:06:06;;;;;;;12.43;11.40;;;4.60;57.50;;;;;;20541;6849;311028;-66
2023/12/07 02:08:31;;;;;;;10.55;9.50;;;4.90;57.40;;;;;;20734;6850;118272;-65
2023/12/07 02:10:57;;;;;;;8.80;8.10;;;4.80;57.50;;;;;;20792;6836;117452;-65
2023/12/07 02:13:23;;;;;;;9.32;8.57;;;4.50;57.90;;;;;;20730;6851;118434;-65
2023/12/07 02:15:50;;;;;;;12.13;11.03;;;4.30;58.40;;;;;;20571;6836;307714;-67
2023/12/07 02:18:14;;;;;;;12.83;11.63;;;4.40;58.40;;;;;;20579;6836;310074;-67
2023/12/07 02:20:39;;;;;;;10.30;9.40;;;4.70;57.80;;;;;;20773;6836;117630;-66
2023/12/07 02:23:05;;;;;;;9.75;8.75;;;4.70;57.60;;;;;;20746;6849;117918;-66
2023/12/07 02:25:41;;;;;;;8.85;8.07;;;4.50;57.90;;;;;;20728;6849;117186;-66
2023/12/07 02:28:06;;;;;;;7.10;6.60;;;4.40;58.40;;;;;;20720;6849;117779;-66
2023/12/07 02:30:32;;;;;;;9.10;8.25;;;4.20;58.90;;;;;;20741;6851;117354;-66
2023/12/07 02:32:57;;;;;;;8.70;7.90;;;4.10;59.30;;;;;;20800;6836;117378;-66
2023/12/07 02:35:23;;;;;;;11.12;10.23;;;4.00;59.70;;;;;;20526;6849;338691;-66
2023/12/07 02:37:49;;;;;;;10.27;9.37;;;4.20;60.00;;;;;;20739;6851;118080;-66
2023/12/07 02:40:18;;;;;;;12.60;11.40;;;4.30;59.80;;;;;;20581;6836;308473;-66
2023/12/07 02:42:43;;;;;;;12.03;11.03;;;4.50;59.70;;;;;;20567;6836;326667;-66
2023/12/07 02:45:09;;;;;;;11.17;10.37;;;4.80;58.60;;;;;;20581;6836;282892;-66
2023/12/07 02:47:35;;;;;;;11.00;10.00;;;5.10;58.20;;;;;;20777;6836;117310;-64
2023/12/07 02:50:00;;;;;;;8.50;7.75;;;5.00;58.00;;;;;;20783;6836;118383;-65
2023/12/07 02:52:26;;;;;;;11.45;10.45;;;4.80;58.30;;;;;;20540;6851;307784;-65
2023/12/07 02:54:51;;;;;;;9.90;9.10;;;4.70;58.60;;;;;;20756;6851;117697;-65
2023/12/07 02:57:17;;;;;;;9.57;8.45;;;4.70;58.40;;;;;;20727;6853;127694;-64
2023/12/07 02:59:43;;;;;;;11.60;10.70;;;4.40;58.70;;;;;;20532;6851;339378;-65
2023/12/07 03:02:08;;;;;;;9.23;8.30;;;4.50;58.90;;;;;;20753;6851;117610;-65
2023/12/07 03:04:34;;;;;;;8.32;7.53;;;4.40;58.60;;;;;;20754;6851;118413;-65
2023/12/07 03:07:00;;;;;;;12.82;11.70;;;4.30;58.70;;;;;;20541;6849;309960;-65
2023/12/07 03:09:26;;;;;;;11.30;10.27;;;4.30;58.70;;;;;;20726;6850;117875;-65
2023/12/07 03:11:51;;;;;;;9.60;8.60;;;4.20;58.20;;;;;;20749;6851;118222;-65
2023/12/07 03:14:19;;;;;;;12.55;11.35;;;4.00;58.50;;;;;;20542;6850;307590;-64
2023/12/07 03:16:43;;;;;;;10.35;8.68;;;4.00;58.40;;;;;;20790;6839;117660;-65
2023/12/07 03:19:10;;;;;;;13.67;12.43;;;4.10;58.50;;;;;;20576;6839;307732;-65
2023/12/07 03:21:39;;;;;;;9.53;8.57;;;4.00;58.20;;;;;;20793;6839;185600;-64
2023/12/07 03:24:05;;;;;;;12.37;11.27;;;4.00;58.20;;;;;;20574;6839;338467;-65
2023/12/07 03:26:31;;;;;;;12.03;11.03;;;4.10;58.50;;;;;;20567;6839;279696;-67
2023/12/07 03:28:56;;;;;;;13.63;12.33;;;4.30;58.50;;;;;;20578;6836;305355;-64
2023/12/07 03:31:22;;;;;;;9.63;8.70;;;4.60;58.50;;;;;;20781;6836;118603;-64
2023/12/07 03:33:47;;;;;;;11.37;9.37;;;4.40;58.20;;;;;;20799;6836;117283;-64
2023/12/07 03:36:13;;;;;;;8.98;7.97;;;4.10;58.70;;;;;;20801;6836;117340;-64
2023/12/07 03:38:39;;;;;;;8.55;7.75;;;3.70;59.90;;;;;;20792;6836;118537;-65
2023/12/07 03:41:05;;;;;;;8.20;7.50;;;3.70;59.90;;;;;;20797;6836;117388;-64
2023/12/07 03:43:31;;;;;;;13.43;12.05;;;3.60;60.40;;;;;;20564;6836;278115;-64
2023/12/07 03:45:57;;;;;;;10.00;9.10;;;3.60;60.40;;;;;;20755;6851;117833;-64
2023/12/07 03:48:22;;;;;;;13.83;12.63;;;3.60;60.00;;;;;;20581;6836;307696;-64
2023/12/07 03:50:48;;;;;;;13.43;12.32;;;3.70;60.00;;;;;;20575;6836;307727;-64
2023/12/07 03:53:14;;;;;;;13.23;12.18;;;4.10;59.30;;;;;;20588;6836;307215;-64
2023/12/07 03:55:39;;;;;;;13.27;12.07;;;4.30;58.50;;;;;;20571;6833;303807;-64
2023/12/07 03:58:05;;;;;;;12.57;11.60;;;4.50;58.00;;;;;;20584;6833;315638;-65
2023/12/07 04:00:33;;;;;;;14.05;12.85;;;4.60;57.30;;;;;;20593;6833;280666;-64
2023/12/07 04:02:59;;;;;;;12.98;11.85;;;4.70;57.00;;;;;;20592;6833;308323;-64
2023/12/07 04:05:25;;;;;;;11.00;9.90;;;4.80;56.40;;;;;;20785;6833;119432;-65
2023/12/07 04:07:50;;;;;;;9.67;8.80;;;4.60;56.60;;;;;;20834;6823;118201;-64
2023/12/07 04:10:16;;;;;;;9.23;8.40;;;4.30;57.50;;;;;;20846;6823;117213;-63
2023/12/07 04:12:41;;;;;;;8.93;8.03;;;4.00;58.30;;;;;;20832;6823;123018;-64
2023/12/07 04:15:07;;;;;;;12.50;11.50;;;3.80;59.00;;;;;;20636;6823;277961;-64
2023/12/07 04:17:33;;;;;;;12.82;11.63;;;3.90;59.70;;;;;;20611;6823;278758;-64
2023/12/07 04:19:58;;;;;;;13.10;12.10;;;4.20;59.30;;;;;;20619;6821;306711;-64
2023/12/07 04:22:24;;;;;;;13.27;12.23;;;4.50;58.60;;;;;;20637;6822;309245;-64
2023/12/07 04:24:50;;;;;;;11.43;10.33;;;4.70;57.90;;;;;;20851;6822;117686;-64
2023/12/07 04:27:16;;;;;;;13.77;12.57;;;4.60;57.80;;;;;;20619;6822;310598;-66
2023/12/07 04:29:42;;;;;;;11.17;10.17;;;4.60;57.80;;;;;;20643;6823;117746;-65
2023/12/07 04:32:07;;;;;;;8.97;8.27;;;4.40;57.70;;;;;;20828;6823;117994;-65
2023/12/07 04:34:33;;;;;;;13.27;12.15;;;4.10;58.20;;;;;;20618;6823;308112;-65
2023/12/07 04:36:58;;;;;;;8.63;7.93;;;4.20;58.80;;;;;;20837;6823;118182;-65
2023/12/07 04:39:24;;;;;;;13.62;12.43;;;4.10;58.70;;;;;;20600;6823;308611;-65
2023/12/07 04:41:50;;;;;;;9.87;8.97;;;4.20;59.10;;;;;;20896;6823;118259;-64
2023/12/07 04:44:15;;;;;;;14.40;13.00;;;4.20;59.00;;;;;;20683;6823;335710;-65
2023/12/07 04:46:41;;;;;;;15.07;13.73;;;4.20;58.90;;;;;;20682;6823;337388;-65
2023/12/07 04:49:06;;;;;;;14.43;11.93;;;4.50;58.40;;;;;;20860;6823;118302;-64
2023/12/07 04:51:32;;;;;;;10.23;9.27;;;4.40;58.20;;;;;;20812;6823;118185;-65
2023/12/07 04:53:58;;;;;;;9.73;8.83;;;4.10;58.50;;;;;;20849;6823;117570;-65
2023/12/07 04:56:23;;;;;;;13.20;11.90;;;3.80;59.00;;;;;;20628;6823;277535;-65
2023/12/07 04:58:49;;;;;;;10.03;9.13;;;3.90;59.00;;;;;;20831;6823;116779;-65
2023/12/07 05:01:14;;;;;;;8.90;8.10;;;3.90;58.90;;;;;;20838;6823;117427;-65
2023/12/07 05:03:40;;;;;;;12.88;11.77;;;3.60;59.10;;;;;;20614;6823;278358;-65
2023/12/07 05:06:07;;;;;;;12.85;11.75;;;3.70;59.50;;;;;;20633;6823;308229;-65
2023/12/07 05:08:31;;;;;;;10.60;9.67;;;4.00;59.10;;;;;;20818;6823;118032;-65
2023/12/07 05:10:57;;;;;;;12.18;11.07;;;4.00;58.70;;;;;;20619;6823;306637;-65
2023/12/07 05:13:22;;;;;;;13.10;12.00;;;4.00;58.70;;;;;;20617;6823;278312;-66
2023/12/07 05:15:48;;;;;;;13.90;12.70;;;4.20;58.00;;;;;;20630;6823;305236;-65
2023/12/07 05:18:14;;;;;;;10.37;9.27;;;4.40;57.20;;;;;;20817;6823;117897;-65
2023/12/07 05:20:40;;;;;;;10.17;9.20;;;3.90;58.00;;;;;;20830;6823;117289;-65
2023/12/07 05:23:06;;;;;;;9.43;8.53;;;3.80;57.90;;;;;;20843;6823;117864;-64
2023/12/07 05:25:32;;;;;;;12.43;11.40;;;3.60;58.70;;;;;;20601;6823;278067;-64
2023/12/07 05:27:57;;;;;;;12.80;11.80;;;3.60;59.00;;;;;;20618;6823;335916;-65
2023/12/07 05:30:23;;;;;;;10.27;9.37;;;3.90;58.60;;;;;;20828;6821;117661;-64
2023/12/07 05:32:51;;;;;;;11.03;9.83;;;3.60;58.90;;;;;;20843;6822;117763;-65
2023/12/07 05:35:17;;;;;;;9.27;8.37;;;3.30;59.30;;;;;;20833;6822;118817;-64
2023/12/07 05:37:43;;;;;;;9.60;8.80;;;3.20;60.00;;;;;;20737;6848;117693;-65
2023/12/07 05:40:12;;;;;;;14.32;12.93;;;3.30;60.50;;;;;;20607;6822;307502;-65
2023/12/07 05:42:36;;;;;;;14.48;13.07;;;3.30;60.50;;;;;;20594;6823;337160;-65
2023/12/07 05:45:01;;;;;;;12.87;11.57;;;3.60;59.70;;;;;;20828;6823;118237;-65
2023/12/07 05:47:27;;;;;;;10.10;9.20;;;3.60;59.20;;;;;;20815;6823;117814;-64
2023/12/07 05:49:53;;;;;;;14.18;12.98;;;3.40;59.80;;;;;;20621;6823;304939;-65
2023/12/07 05:52:20;;;;;;;11.30;10.20;;;3.40;59.70;;;;;;20842;6823;120333;-65
2023/12/07 05:54:47;;;;;;;14.20;12.90;;;3.30;59.60;;;;;;20628;6823;278087;-65
2023/12/07 05:57:12;;;;;;;11.63;10.43;;;3.40;59.50;;;;;;20821;6823;74480;-67
2023/12/07 05:59:41;;;;;;;10.23;9.23;;;3.20;59.90;;;;;;20809;6823;117487;-77
2023/12/07 06:02:06;;;;;;;14.33;12.93;;;3.30;60.20;;;;;;20525;6823;306998;-66
2023/12/07 06:04:32;;;;;;;14.00;12.80;;;3.50;59.40;;;;;;20604;6823;302417;-65
2023/12/07 06:06:59;;;;;;;14.43;13.13;;;3.80;58.40;;;;;;20604;6823;336576;-65
2023/12/07 06:09:24;;;;;;;10.93;9.77;;;3.70;58.80;;;;;;20808;6823;117872;-65
2023/12/07 06:11:50;;;;;;;14.70;13.32;;;3.60;58.50;;;;;;20619;6823;291433;-66
2023/12/07 06:14:15;;;;;;;14.10;12.83;;;3.60;59.10;;;;;;20600;6823;307400;-66
2023/12/07 06:16:41;;;;;;;14.55;13.15;;;3.80;58.80;;;;;;20622;6823;307134;-67
2023/12/07 06:19:07;;;;;;;10.97;9.97;;;3.90;58.30;;;;;;20817;6823;117737;-65
2023/12/07 06:21:33;;;;;;;18.10;16.12;;;3.80;58.10;;;;;;20597;6823;307151;-65
2023/12/07 06:23:58;;;;;;;24.43;14.07;;;3.70;58.40;;;;;;20835;6823;118299;-66
2023/12/07 06:26:24;;;;;;;13.87;11.37;;;3.30;58.90;;;;;;20836;6823;116328;-67
2023/12/07 06:28:50;;;;;;;12.60;10.87;;;3.30;58.90;;;;;;20825;6823;117684;-66
2023/12/07 06:31:19;;;;;;;14.90;13.45;;;3.00;59.50;;;;;;20634;6823;281237;-66
2023/12/07 06:33:41;;;;;;;16.23;14.77;;;3.10;59.80;;;;;;20600;6823;306756;-66
2023/12/07 06:36:07;;;;;;;15.57;14.15;;;3.30;59.00;;;;;;20630;6823;280225;-66
2023/12/07 06:38:32;;;;;;;15.93;14.33;;;3.50;57.60;;;;;;20609;6823;280434;-66
2023/12/07 06:40:59;;;;;;;14.53;13.13;;;3.80;57.10;;;;;;20631;6823;307858;-66
2023/12/07 06:43:24;;;;;;;17.23;15.67;;;3.80;57.50;;;;;;20611;6821;308844;-66
2023/12/07 06:45:50;;;;;;;14.87;13.57;;;3.90;56.70;;;;;;20630;6822;278462;-66
2023/12/07 06:48:16;;;;;;;14.75;13.55;;;3.90;56.20;;;;;;20607;6822;306876;-67
2023/12/07 06:50:41;;;;;;;10.00;9.10;;;4.00;56.20;;;;;;20837;6822;117591;-66
2023/12/07 06:53:07;;;;;;;120.77;11.07;;;3.80;56.40;;;;;;20841;6823;117400;-66
2023/12/07 06:55:33;;;;;;;41.90;8.67;;;3.30;56.80;;;;;;20829;6823;117733;-66
2023/12/07 06:57:58;;;;;;;107.40;9.07;;;3.00;57.70;;;;;;20822;6823;119732;-67
2023/12/07 07:00:24;;;;;;;224.50;14.95;;;2.70;58.50;;;;;;20616;6823;309865;-67
2023/12/07 07:02:50;;;;;;;49.73;12.20;;;2.70;58.80;;;;;;20627;6823;307472;-67
2023/12/07 07:05:16;;;;;;;297.67;16.57;;;2.90;57.70;;;;;;20629;6823;277324;-69
2023/12/07 07:07:42;;;;;;;146.63;11.57;;;3.20;57.70;;;;;;20647;6823;118286;-67
2023/12/07 07:10:09;;;;;;;137.20;11.13;;;3.10;57.60;;;;;;20830;6823;118112;-67
2023/12/07 07:12:33;;;;;;;101.53;10.83;;;2.80;58.10;;;;;;20836;6823;117717;-67
2023/12/07 07:14:59;;;;;;;150.68;15.00;;;2.50;58.70;;;;;;20627;6823;308678;-66
2023/12/07 07:17:25;;;;;;;188.20;12.73;;;2.60;59.10;;;;;;20813;6823;117840;-67
2023/12/07 07:19:51;;;;;;;117.37;15.32;;;2.60;59.10;;;;;;20618;6823;298764;-67
2023/12/07 07:22:17;;;;;;;96.90;14.87;;;2.70;60.20;;;;;;20631;6823;278988;-67
2023/12/07 07:24:42;;;;;;;68.95;14.02;;;3.00;59.40;;;;;;20638;6823;278149;-67
2023/12/07 07:27:08;;;;;;;11.20;9.77;;;3.20;58.90;;;;;;20828;6823;118035;-67
2023/12/07 07:29:34;;;;;;;33.70;12.52;;;3.10;58.40;;;;;;20606;6823;278003;-67
2023/12/07 07:31:59;;;;;;;51.65;13.75;;;3.10;58.20;;;;;;20629;6823;307199;-67
2023/12/07 07:34:26;;;;;;;70.45;13.15;;;3.40;57.20;;;;;;20626;6823;307182;-67
2023/12/07 07:36:53;;;;;;;15.53;8.30;;;3.40;57.20;;;;;;20838;6823;118075;-67
2023/12/07 07:39:18;;;;;;;8.57;7.80;;;3.30;57.40;;;;;;20804;6823;120055;-67
2023/12/07 07:41:44;;;;;;;13.50;7.97;;;3.00;58.10;;;;;;20841;6823;117869;-67
2023/12/07 07:44:10;;;;;;;22.97;8.77;;;2.60;59.40;;;;;;20846;6823;117850;-67
2023/12/07 07:46:36;;;;;;;43.47;8.80;;;2.60;59.40;;;;;;20836;6823;117287;-67
2023/12/07 07:49:03;;;;;;;83.33;15.60;;;2.30;60.30;;;;;;20819;6823;117419;-67
2023/12/07 07:51:28;;;;;;;75.63;14.67;;;2.20;61.20;;;;;;20816;6823;118989;-67
2023/12/07 07:53:55;;;;;;;145.27;13.63;;;2.10;60.90;;;;;;20846;6821;117759;-67
2023/12/07 07:56:20;;;;;;;370.97;26.17;;;2.10;60.90;;;;;;20639;6822;281403;-70
2023/12/07 07:58:46;;;;;;;552.20;26.58;;;2.30;60.20;;;;;;20628;6822;278640;-68
2023/12/07 08:01:11;;;;;;;750.05;33.30;;;2.60;59.00;;;;;;20638;6822;277245;-67
2023/12/07 08:03:37;;;;;;;492.47;37.27;;;2.90;58.00;;;;;;20676;6822;278332;-68
2023/12/07 08:06:03;;;;;;;493.95;33.45;;;3.10;57.10;;;;;;20629;6823;295010;-67
2023/12/07 08:08:28;;;;;;;320.23;20.27;;;3.30;56.60;;;;;;20824;6823;117833;-67
2023/12/07 08:10:55;;;;;;;198.37;22.67;;;3.10;56.70;;;;;;20841;6823;117576;-67
2023/12/07 08:13:21;;;;;;;381.90;23.40;;;2.90;57.40;;;;;;20823;6823;118197;-67
2023/12/07 08:15:46;;;;;;;410.92;31.37;;;2.70;58.20;;;;;;20636;6823;277403;-67
2023/12/07 08:18:12;;;;;;;224.47;24.93;;;2.80;58.50;;;;;;20825;6823;118073;-67
2023/12/07 08:20:38;;;;;;;300.83;18.37;;;2.70;58.80;;;;;;20835;6823;118847;-67
2023/12/07 08:23:04;;;;;;;134.60;14.60;;;2.60;58.70;;;;;;20847;6823;118120;-67
2023/12/07 08:25:31;;;;;;;350.58;25.27;;;2.70;59.80;;;;;;20610;6823;277561;-67
2023/12/07 08:27:56;;;;;;;186.70;20.87;;;3.00;59.10;;;;;;20613;6823;278277;-67
2023/12/07 08:30:22;;;;;;;563.60;27.30;;;3.00;59.00;;;;;;20629;6823;306409;-68
2023/12/07 08:32:48;;;;;;;82.22;14.50;;;3.40;58.30;;;;;;20615;6823;308146;-68
2023/12/07 08:35:13;;;;;;;64.80;10.37;;;3.70;57.00;;;;;;20841;6823;117440;-67
2023/12/07 08:37:39;;;;;;;94.40;14.13;;;3.60;56.90;;;;;;20597;6823;307862;-67
2023/12/07 08:40:05;;;;;;;44.15;11.52;;;3.70;57.00;;;;;;20624;6823;279230;-67
2023/12/07 08:42:31;;;;;;;38.80;12.80;;;3.80;55.90;;;;;;20626;6823;277548;-68
2023/12/07 08:44:56;;;;;;;9.80;8.87;;;4.00;55.30;;;;;;20833;6823;117596;-67
2023/12/07 08:47:22;;;;;;;15.98;14.32;;;3.90;55.70;;;;;;20604;6823;278463;-68
2023/12/07 08:49:47;;;;;;;9.87;9.07;;;4.00;55.80;;;;;;20831;6823;117783;-68
2023/12/07 08:52:13;;;;;;;11.30;10.17;;;4.00;55.80;;;;;;20836;6823;117942;-68
2023/12/07 08:54:39;;;;;;;18.03;9.77;;;3.60;57.00;;;;;;20840;6823;117210;-67
2023/12/07 08:57:05;;;;;;;14.57;7.60;;;3.60;56.90;;;;;;20838;6823;117100;-67
2023/12/07 08:59:31;;;;;;;54.03;9.47;;;3.20;57.60;;;;;;20811;6823;118329;-67
2023/12/07 09:01:58;;;;;;;154.47;12.43;;;3.10;58.90;;;;;;20832;6823;117469;-67
2023/12/07 09:04:24;;;;;;;156.53;15.30;;;3.20;57.80;;;;;;20627;6823;280045;-67
2023/12/07 09:06:49;;;;;;;278.00;16.37;;;3.20;57.70;;;;;;20841;6821;118218;-67
2023/12/07 09:09:16;;;;;;;363.08;19.95;;;3.40;57.30;;;;;;20612;6822;306990;-67
2023/12/07 09:11:41;;;;;;;130.43;14.03;;;3.50;57.20;;;;;;20841;6822;117670;-67
2023/12/07 09:14:07;;;;;;;372.93;23.80;;;3.50;57.20;;;;;;20564;6822;312054;-65
2023/12/07 09:16:32;;;;;;;797.93;37.77;;;3.60;56.90;;;;;;20502;6823;305115;-66
2023/12/07 09:18:58;;;;;;;519.83;24.40;;;3.90;56.30;;;;;;20897;6823;116610;-66
2023/12/07 09:21:24;;;;;;;702.40;26.20;;;3.90;56.40;;;;;;20824;6823;129436;-67
2023/12/07 09:23:49;;;;;;;227.40;14.73;;;3.80;56.80;;;;;;20840;6823;119302;-66
2023/12/07 09:26:15;;;;;;;371.53;18.03;;;3.60;57.20;;;;;;20836;6823;117826;-67
2023/12/07 09:28:41;;;;;;;213.43;24.87;;;3.50;57.80;;;;;;20823;6823;69924;-67
2023/12/07 09:31:07;;;;;;;353.43;17.37;;;3.30;58.60;;;;;;20841;6823;117583;-66
2023/12/07 09:33:33;;;;;;;229.30;19.20;;;3.50;58.00;;;;;;20596;6823;309497;-67
2023/12/07 09:35:59;;;;;;;514.70;26.43;;;3.40;58.30;;;;;;20627;6823;307578;-67
2023/12/07 09:38:24;;;;;;;577.40;25.83;;;3.80;57.70;;;;;;20825;6823;117665;-67
2023/12/07 09:40:54;;;;;;;578.93;24.03;;;3.90;57.50;;;;;;20834;6823;117351;-67
2023/12/07 09:43:19;;;;;;;298.73;18.80;;;3.80;58.00;;;;;;20609;6823;308139;-67
2023/12/07 09:45:45;;;;;;;481.17;23.35;;;4.00;58.00;;;;;;20669;6823;307127;-66
2023/12/07 09:48:10;;;;;;;292.90;17.30;;;4.30;56.80;;;;;;20895;6823;116990;-67
2023/12/07 09:50:37;;;;;;;294.77;17.20;;;4.30;56.50;;;;;;20847;6823;117641;-67
2023/12/07 09:53:03;;;;;;;379.43;17.83;;;4.20;57.20;;;;;;20842;6823;117376;-67
2023/12/07 09:55:30;;;;;;;255.47;18.53;;;4.00;57.70;;;;;;20824;6823;118584;-67
2023/12/07 09:57:56;;;;;;;81.07;11.47;;;3.90;58.10;;;;;;20810;6823;118160;-67
2023/12/07 10:00:20;;;;;;;96.07;13.90;;;3.80;58.70;;;;;;20826;6823;117151;-66
2023/12/07 10:02:47;;;;;;;97.30;15.57;;;3.80;59.60;;;;;;20838;6823;117194;-67
2023/12/07 10:05:19;;;;;;;82.20;18.53;;;3.80;58.90;;;;;;20614;6823;336137;-67
2023/12/07 10:07:44;;;;;;;249.70;19.90;;;3.90;58.20;;;;;;20626;6823;277848;-68
2023/12/07 10:10:19;;;;;;;53.80;13.57;;;4.30;57.40;;;;;;20827;6823;118039;-67
2023/12/07 10:12:35;;;;;;;13.82;12.63;;;4.40;57.10;;;;;;20555;6823;278088;-68
2023/12/07 10:15:03;;;;;;;10.03;9.23;;;4.50;57.30;;;;;;20841;6823;118499;-67
2023/12/07 10:17:27;;;;;;;13.10;11.87;;;4.60;57.50;;;;;;20585;6821;307307;-67
2023/12/07 10:19:52;;;;;;;9.83;8.93;;;4.80;58.00;;;;;;20750;6822;117483;-67
2023/12/07 10:22:18;;;;;;;10.52;9.73;;;5.00;57.90;;;;;;20564;6822;307409;-67
2023/12/07 10:24:44;;;;;;;9.13;8.43;;;5.30;57.10;;;;;;20829;6822;117801;-67
2023/12/07 10:27:09;;;;;;;11.43;10.50;;;5.30;57.10;;;;;;20824;6822;117505;-67
2023/12/07 10:29:35;;;;;;;15.68;14.48;;;5.20;57.30;;;;;;20594;6823;307545;-67
2023/12/07 10:32:02;;;;;;;11.25;10.45;;;5.70;55.50;;;;;;20625;6823;307630;-67
2023/12/07 10:34:27;;;;;;;9.30;8.43;;;5.70;55.40;;;;;;20837;6823;117805;-67
2023/12/07 10:36:53;;;;;;;10.95;10.20;;;5.80;55.60;;;;;;20623;6823;307816;-67
2023/12/07 10:39:20;;;;;;;12.45;11.32;;;5.90;55.10;;;;;;20595;6823;307091;-66
2023/12/07 10:41:44;;;;;;;10.63;9.73;;;6.10;54.80;;;;;;20833;6823;117453;-67
2023/12/07 10:44:10;;;;;;;11.93;11.02;;;6.20;55.10;;;;;;20622;6823;306612;-66
2023/12/07 10:46:38;;;;;;;9.23;8.53;;;6.20;55.40;;;;;;20822;6823;117350;-67
2023/12/07 10:49:07;;;;;;;8.90;8.20;;;6.00;56.40;;;;;;20812;6823;116924;-67
2023/12/07 10:51:42;;;;;;;13.23;12.23;;;6.00;55.70;;;;;;20603;6823;308441;-67
2023/12/07 10:54:08;;;;;;;12.87;11.97;;;6.10;55.80;;;;;;20604;6823;306359;-67
2023/12/07 10:56:44;;;;;;;11.23;10.23;;;6.30;55.60;;;;;;20823;6823;117599;-66
2023/12/07 10:59:11;;;;;;;12.90;11.90;;;6.30;55.50;;;;;;20613;6823;306671;-66
2023/12/07 11:01:35;;;;;;;10.33;9.53;;;6.40;55.50;;;;;;20819;6823;119027;-66
2023/12/07 11:04:01;;;;;;;8.97;8.27;;;6.30;56.50;;;;;;20832;6823;117156;-67
2023/12/07 11:06:27;;;;;;;9.37;8.77;;;6.30;56.50;;;;;;20626;6823;307127;-67
2023/12/07 11:08:52;;;;;;;8.23;7.53;;;6.40;55.90;;;;;;20821;6823;116942;-67
2023/12/07 11:11:25;;;;;;;9.50;8.80;;;6.50;55.70;;;;;;20501;6823;306456;-66
2023/12/07 11:13:54;;;;;;;8.13;7.37;;;6.70;54.20;;;;;;20828;6823;117248;-67
2023/12/07 11:16:33;;;;;;;9.40;8.80;;;6.70;54.20;;;;;;20591;6823;308383;-67
2023/12/07 11:18:59;;;;;;;9.17;8.47;;;6.90;53.30;;;;;;20789;6823;117876;-67
2023/12/07 11:21:25;;;;;;;8.87;8.07;;;6.90;53.90;;;;;;20821;6823;117040;-67
2023/12/07 11:23:50;;;;;;;10.93;10.13;;;6.80;54.40;;;;;;20620;6823;309683;-67
2023/12/07 11:26:16;;;;;;;9.70;8.90;;;6.90;54.60;;;;;;20840;6823;118475;-68
2023/12/07 11:28:41;;;;;;;9.07;8.37;;;7.00;55.00;;;;;;20813;6821;117539;-67
2023/12/07 11:31:07;;;;;;;8.73;8.03;;;7.00;55.50;;;;;;20827;6822;121064;-67
2023/12/07 11:33:33;;;;;;;10.90;10.00;;;6.90;55.80;;;;;;20603;6822;307135;-67
2023/12/07 11:36:02;;;;;;;11.03;9.93;;;7.10;54.90;;;;;;20838;6822;119570;-67
2023/12/07 11:38:28;;;;;;;11.80;10.87;;;7.10;54.90;;;;;;20610;6822;277215;-72
2023/12/07 11:40:53;;;;;;;12.35;11.43;;;7.20;54.50;;;;;;20619;6823;336204;-67
2023/12/07 11:43:32;;;;;;;9.87;9.00;;;7.50;54.00;;;;;;20820;6823;147147;-67
2023/12/07 11:45:58;;;;;;;10.82;10.02;;;7.50;54.20;;;;;;20617;6823;307476;-67
2023/12/07 11:48:23;;;;;;;11.38;10.45;;;7.60;52.90;;;;;;20605;6823;313684;-68
2023/12/07 11:51:05;;;;;;;10.70;9.80;;;7.70;52.50;;;;;;20622;6823;310145;-68
2023/12/07 11:53:32;;;;;;;9.67;8.90;;;8.10;50.40;;;;;;20609;6823;305596;-68
2023/12/07 11:56:04;;;;;;;9.07;8.37;;;8.10;50.40;;;;;;20631;6823;277163;-67
2023/12/07 11:58:30;;;;;;;8.18;7.57;;;8.20;49.20;;;;;;20603;6823;307886;-66
2023/12/07 12:00:56;;;;;;;8.13;7.55;;;8.40;48.20;;;;;;20614;6823;285324;-68
2023/12/07 12:03:20;;;;;;;8.02;7.43;;;8.40;47.40;;;;;;20609;6823;307012;-67
2023/12/07 12:05:46;;;;;;;8.70;8.00;;;8.50;46.60;;;;;;20633;6823;277567;-67
2023/12/07 12:08:12;;;;;;;8.23;7.63;;;8.50;46.20;;;;;;20825;6823;117430;-68
2023/12/07 12:10:37;;;;;;;9.82;9.10;;;8.30;47.10;;;;;;20624;6823;311273;-68
2023/12/07 12:13:07;;;;;;;7.80;7.10;;;7.90;47.90;;;;;;20837;6823;117378;-68
2023/12/07 12:15:33;;;;;;;7.33;6.63;;;7.60;48.90;;;;;;20819;6823;117282;-68
2023/12/07 12:18:00;;;;;;;7.40;6.77;;;7.30;49.80;;;;;;20829;6823;117456;-67
2023/12/07 12:20:26;;;;;;;8.17;7.37;;;7.10;50.70;;;;;;20830;6823;116863;-68
2023/12/07 12:22:53;;;;;;;7.10;6.50;;;7.00;50.60;;;;;;20833;6823;118175;-67
2023/12/07 12:25:18;;;;;;;7.20;6.60;;;6.80;51.70;;;;;;20817;6823;117297;-68
2023/12/07 12:27:44;;;;;;;7.97;7.37;;;6.90;50.50;;;;;;20629;6823;279008;-67
2023/12/07 12:30:10;;;;;;;7.77;7.20;;;6.90;50.20;;;;;;20612;6823;315804;-68
2023/12/07 12:32:45;;;;;;;8.20;7.60;;;7.20;48.40;;;;;;20615;6823;309371;-67
2023/12/07 12:35:12;;;;;;;7.13;6.37;;;7.60;47.90;;;;;;20826;6823;116832;-68
2023/12/07 12:37:37;;;;;;;6.97;6.57;;;7.60;48.50;;;;;;20603;6823;303555;-67
2023/12/07 12:40:06;;;;;;;5.20;4.70;;;7.60;46.60;;;;;;20809;6821;118152;-67
2023/12/07 12:42:31;;;;;;;5.80;5.40;;;7.60;47.30;;;;;;20622;6822;306699;-67
2023/12/07 12:44:57;;;;;;;4.30;3.90;;;7.60;45.70;;;;;;20838;6822;117723;-66
2023/12/07 12:47:23;;;;;;;4.10;3.80;;;7.50;46.40;;;;;;20858;6822;117062;-67
2023/12/07 12:49:48;;;;;;;4.15;3.85;;;7.40;47.20;;;;;;20576;6822;335677;-67
2023/12/07 12:52:17;;;;;;;3.87;3.58;;;7.40;44.30;;;;;;20607;6823;336931;-67
2023/12/07 12:54:43;;;;;;;3.70;2.67;;;7.60;41.70;;;;;;20812;6828;118622;-67
2023/12/07 12:57:09;;;;;;;2.58;2.47;;;7.60;42.90;;;;;;20579;6828;307012;-67
2023/12/07 12:59:34;;;;;;;2.90;2.65;;;7.60;40.30;;;;;;20567;6821;278519;-67
2023/12/07 13:02:00;;;;;;;2.20;2.00;;;7.80;40.00;;;;;;20833;6821;117899;-67
2023/12/07 13:04:27;;;;;;;1.90;1.80;;;7.80;40.00;;;;;;20814;6821;117400;-67
2023/12/07 13:06:52;;;;;;;2.15;2.05;;;7.60;41.20;;;;;;20594;6830;307437;-67
2023/12/07 13:09:18;;;;;;;2.35;2.15;;;7.60;38.20;;;;;;20538;6830;118318;-67
2023/12/07 13:11:44;;;;;;;3.37;1.93;;;7.40;40.60;;;;;;20746;6823;118757;-67